Terminal Aerodrome Forecast
Issued by NWS

Home | Current Version | Previous Version | Text Only | Print | Product List | Glossary On
Versions: 1 2 3 4 5 6 7 8 9 10 11 12 13 14 15 16 17 18 19 20 21 22 23 24 25 26
000
FTUS45 KLKN 191720
TAFEKO
TAF
KEKO 191720Z 1918/2018 21005KT P6SM SKC
     FM191900 29008G16KT P6SM SCT200
     FM200600 06004KT P6SM BKN200
     FM201400 06004KT P6SM FEW200=

USA.gov is the U.S. government's official web portal to all federal, state and local government web resources and services.